sensor_id;sensor_type;location;lat;lon;timestamp;temperature;humidity
8103;DHT22;4094;49.948;11.574;2022-08-05T00:01:32;27.90;42.20
8103;DHT22;4094;49.948;11.574;2022-08-05T00:04:16;27.90;42.00
8103;DHT22;4094;49.948;11.574;2022-08-05T00:06:45;27.90;42.00
8103;DHT22;4094;49.948;11.574;2022-08-05T00:09:18;27.80;41.80
8103;DHT22;4094;49.948;11.574;2022-08-05T00:11:48;27.80;41.90
8103;DHT22;4094;49.948;11.574;2022-08-05T00:14:26;27.80;42.00
8103;DHT22;4094;49.948;11.574;2022-08-05T00:16:59;27.80;42.10
8103;DHT22;4094;49.948;11.574;2022-08-05T00:19:30;27.80;42.30
8103;DHT22;4094;49.948;11.574;2022-08-05T00:22:07;27.70;42.00
8103;DHT22;4094;49.948;11.574;2022-08-05T00:24:38;27.70;42.00
8103;DHT22;4094;49.948;11.574;2022-08-05T00:27:09;27.70;42.10
8103;DHT22;4094;49.948;11.574;2022-08-05T00:29:58;27.70;42.00
8103;DHT22;4094;49.948;11.574;2022-08-05T00:32:31;27.70;42.10
8103;DHT22;4094;49.948;11.574;2022-08-05T00:35:03;27.60;41.90
8103;DHT22;4094;49.948;11.574;2022-08-05T00:37:34;27.60;42.10
8103;DHT22;4094;49.948;11.574;2022-08-05T00:40:21;27.60;42.00
8103;DHT22;4094;49.948;11.574;2022-08-05T00:42:58;27.50;42.10
8103;DHT22;4094;49.948;11.574;2022-08-05T00:45:28;27.50;42.10
8103;DHT22;4094;49.948;11.574;2022-08-05T00:48:13;27.50;42.20
8103;DHT22;4094;49.948;11.574;2022-08-05T00:50:44;27.50;42.30
8103;DHT22;4094;49.948;11.574;2022-08-05T00:53:15;27.50;42.60
8103;DHT22;4094;49.948;11.574;2022-08-05T00:56:05;27.50;42.50
8103;DHT22;4094;49.948;11.574;2022-08-05T00:58:35;27.40;42.30
8103;DHT22;4094;49.948;11.574;2022-08-05T01:01:05;27.40;42.50
8103;DHT22;4094;49.948;11.574;2022-08-05T01:03:38;27.40;42.30
8103;DHT22;4094;49.948;11.574;2022-08-05T01:06:08;27.40;42.80
8103;DHT22;4094;49.948;11.574;2022-08-05T01:08:40;27.40;42.60
8103;DHT22;4094;49.948;11.574;2022-08-05T01:11:15;27.30;42.80
8103;DHT22;4094;49.948;11.574;2022-08-05T01:13:59;27.30;43.00
8103;DHT22;4094;49.948;11.574;2022-08-05T01:16:35;27.30;42.70
8103;DHT22;4094;49.948;11.574;2022-08-05T01:19:18;27.30;42.80
8103;DHT22;4094;49.948;11.574;2022-08-05T01:22:27;27.20;42.70
8103;DHT22;4094;49.948;11.574;2022-08-05T01:25:28;27.20;42.90
8103;DHT22;4094;49.948;11.574;2022-08-05T01:28:20;27.10;43.00
8103;DHT22;4094;49.948;11.574;2022-08-05T01:30:53;27.10;42.80
8103;DHT22;4094;49.948;11.574;2022-08-05T01:33:30;27.00;42.80
8103;DHT22;4094;49.948;11.574;2022-08-05T01:36:07;27.00;43.00
8103;DHT22;4094;49.948;11.574;2022-08-05T01:38:44;27.00;43.20
8103;DHT22;4094;49.948;11.574;2022-08-05T01:41:19;27.00;43.30
8103;DHT22;4094;49.948;11.574;2022-08-05T01:43:54;27.00;43.10
8103;DHT22;4094;49.948;11.574;2022-08-05T01:46:24;26.90;43.40
8103;DHT22;4094;49.948;11.574;2022-08-05T01:49:17;26.90;43.10
8103;DHT22;4094;49.948;11.574;2022-08-05T01:51:54;26.90;43.50
8103;DHT22;4094;49.948;11.574;2022-08-05T01:54:28;26.90;43.50
8103;DHT22;4094;49.948;11.574;2022-08-05T01:57:00;26.80;43.50
8103;DHT22;4094;49.948;11.574;2022-08-05T01:59:54;26.80;43.70
8103;DHT22;4094;49.948;11.574;2022-08-05T02:02:27;26.80;43.40
8103;DHT22;4094;49.948;11.574;2022-08-05T02:05:00;26.80;43.40
8103;DHT22;4094;49.948;11.574;2022-08-05T02:07:38;26.70;43.60
8103;DHT22;4094;49.948;11.574;2022-08-05T02:10:26;26.70;43.50
8103;DHT22;4094;49.948;11.574;2022-08-05T02:13:00;26.70;43.50
8103;DHT22;4094;49.948;11.574;2022-08-05T02:15:48;26.70;43.60
8103;DHT22;4094;49.948;11.574;2022-08-05T02:18:22;26.60;43.80
8103;DHT22;4094;49.948;11.574;2022-08-05T02:21:06;26.60;43.60
8103;DHT22;4094;49.948;11.574;2022-08-05T02:23:44;26.60;43.80
8103;DHT22;4094;49.948;11.574;2022-08-05T02:26:19;26.60;43.90
8103;DHT22;4094;49.948;11.574;2022-08-05T02:28:55;26.50;43.70
8103;DHT22;4094;49.948;11.574;2022-08-05T02:31:29;26.50;43.80
8103;DHT22;4094;49.948;11.574;2022-08-05T02:34:06;26.50;43.80
8103;DHT22;4094;49.948;11.574;2022-08-05T02:36:41;26.50;43.90
8103;DHT22;4094;49.948;11.574;2022-08-05T02:39:12;26.50;43.80
8103;DHT22;4094;49.948;11.574;2022-08-05T02:41:48;26.50;43.80
8103;DHT22;4094;49.948;11.574;2022-08-05T02:44:30;26.50;43.70
8103;DHT22;4094;49.948;11.574;2022-08-05T02:47:04;26.50;43.50
8103;DHT22;4094;49.948;11.574;2022-08-05T02:49:35;26.50;43.80
8103;DHT22;4094;49.948;11.574;2022-08-05T02:52:10;26.50;43.70
8103;DHT22;4094;49.948;11.574;2022-08-05T02:54:53;26.50;43.50
8103;DHT22;4094;49.948;11.574;2022-08-05T02:57:24;26.50;43.70
8103;DHT22;4094;49.948;11.574;2022-08-05T03:00:13;26.50;43.50
8103;DHT22;4094;49.948;11.574;2022-08-05T03:02:46;26.40;43.40
8103;DHT22;4094;49.948;11.574;2022-08-05T03:05:17;26.40;43.20
8103;DHT22;4094;49.948;11.574;2022-08-05T03:08:08;26.40;43.30
8103;DHT22;4094;49.948;11.574;2022-08-05T03:10:41;26.40;43.40
8103;DHT22;4094;49.948;11.574;2022-08-05T03:13:31;26.40;43.40
8103;DHT22;4094;49.948;11.574;2022-08-05T03:16:20;26.40;43.40
8103;DHT22;4094;49.948;11.574;2022-08-05T03:18:50;26.40;43.60
8103;DHT22;4094;49.948;11.574;2022-08-05T03:21:19;26.40;43.50
8103;DHT22;4094;49.948;11.574;2022-08-05T03:23:56;26.30;43.60
8103;DHT22;4094;49.948;11.574;2022-08-05T03:26:26;26.40;43.90
8103;DHT22;4094;49.948;11.574;2022-08-05T03:28:59;26.30;43.60
8103;DHT22;4094;49.948;11.574;2022-08-05T03:31:30;26.30;43.60
8103;DHT22;4094;49.948;11.574;2022-08-05T03:34:22;26.30;43.80
8103;DHT22;4094;49.948;11.574;2022-08-05T03:36:51;26.20;43.90
8103;DHT22;4094;49.948;11.574;2022-08-05T03:39:20;26.20;43.90
8103;DHT22;4094;49.948;11.574;2022-08-05T03:41:54;26.20;44.00
8103;DHT22;4094;49.948;11.574;2022-08-05T03:44:23;26.20;44.10
8103;DHT22;4094;49.948;11.574;2022-08-05T03:46:56;26.20;44.30
8103;DHT22;4094;49.948;11.574;2022-08-05T03:49:26;26.20;44.50
8103;DHT22;4094;49.948;11.574;2022-08-05T03:52:21;26.20;44.60
8103;DHT22;4094;49.948;11.574;2022-08-05T03:55:16;26.20;44.60
8103;DHT22;4094;49.948;11.574;2022-08-05T03:58:08;26.20;44.40
8103;DHT22;4094;49.948;11.574;2022-08-05T04:00:39;26.20;44.90
8103;DHT22;4094;49.948;11.574;2022-08-05T04:03:14;26.20;44.80
8103;DHT22;4094;49.948;11.574;2022-08-05T04:05:57;26.20;44.60
8103;DHT22;4094;49.948;11.574;2022-08-05T04:08:27;26.20;44.50
8103;DHT22;4094;49.948;11.574;2022-08-05T04:11:05;26.20;44.10
8103;DHT22;4094;49.948;11.574;2022-08-05T04:13:39;26.20;43.90
8103;DHT22;4094;49.948;11.574;2022-08-05T04:16:18;26.20;43.80
8103;DHT22;4094;49.948;11.574;2022-08-05T04:18:52;26.20;43.90
8103;DHT22;4094;49.948;11.574;2022-08-05T04:21:26;26.20;43.70
8103;DHT22;4094;49.948;11.574;2022-08-05T04:24:15;26.20;43.90
8103;DHT22;4094;49.948;11.574;2022-08-05T04:26:49;26.20;43.70
8103;DHT22;4094;49.948;11.574;2022-08-05T04:29:18;26.30;44.20
8103;DHT22;4094;49.948;11.574;2022-08-05T04:31:47;26.30;44.00
8103;DHT22;4094;49.948;11.574;2022-08-05T04:34:16;26.40;44.10
8103;DHT22;4094;49.948;11.574;2022-08-05T04:37:02;26.40;44.00
8103;DHT22;4094;49.948;11.574;2022-08-05T04:39:32;26.50;43.70
8103;DHT22;4094;49.948;11.574;2022-08-05T04:42:02;26.50;43.60
8103;DHT22;4094;49.948;11.574;2022-08-05T04:44:31;26.60;44.00
8103;DHT22;4094;49.948;11.574;2022-08-05T04:47:00;26.60;43.80
8103;DHT22;4094;49.948;11.574;2022-08-05T04:49:37;26.60;44.10
8103;DHT22;4094;49.948;11.574;2022-08-05T04:52:28;26.70;43.70
8103;DHT22;4094;49.948;11.574;2022-08-05T04:55:01;26.70;43.70
8103;DHT22;4094;49.948;11.574;2022-08-05T04:57:43;26.70;44.00
8103;DHT22;4094;49.948;11.574;2022-08-05T05:00:15;26.70;43.70
8103;DHT22;4094;49.948;11.574;2022-08-05T05:02:44;26.70;44.00
8103;DHT22;4094;49.948;11.574;2022-08-05T05:05:16;26.70;43.90
8103;DHT22;4094;49.948;11.574;2022-08-05T05:08:00;26.70;43.80
8103;DHT22;4094;49.948;11.574;2022-08-05T05:10:32;26.70;43.80
8103;DHT22;4094;49.948;11.574;2022-08-05T05:13:01;26.70;44.20
8103;DHT22;4094;49.948;11.574;2022-08-05T05:15:31;26.70;44.20
8103;DHT22;4094;49.948;11.574;2022-08-05T05:18:21;26.70;44.80
8103;DHT22;4094;49.948;11.574;2022-08-05T05:21:01;26.80;44.80
8103;DHT22;4094;49.948;11.574;2022-08-05T05:23:33;26.80;44.60
8103;DHT22;4094;49.948;11.574;2022-08-05T05:26:23;26.80;44.70
8103;DHT22;4094;49.948;11.574;2022-08-05T05:29:00;26.80;44.90
8103;DHT22;4094;49.948;11.574;2022-08-05T05:31:42;26.80;45.30
8103;DHT22;4094;49.948;11.574;2022-08-05T05:34:13;26.80;45.20
8103;DHT22;4094;49.948;11.574;2022-08-05T05:36:50;26.90;44.80
8103;DHT22;4094;49.948;11.574;2022-08-05T05:39:21;26.90;44.50
8103;DHT22;4094;49.948;11.574;2022-08-05T05:41:50;27.00;44.30
8103;DHT22;4094;49.948;11.574;2022-08-05T05:44:21;27.00;44.30
8103;DHT22;4094;49.948;11.574;2022-08-05T05:47:04;27.10;44.20
8103;DHT22;4094;49.948;11.574;2022-08-05T05:49:48;27.10;44.10
8103;DHT22;4094;49.948;11.574;2022-08-05T05:52:24;27.20;44.00
8103;DHT22;4094;49.948;11.574;2022-08-05T05:55:08;27.30;44.30
8103;DHT22;4094;49.948;11.574;2022-08-05T05:57:41;27.40;44.70
8103;DHT22;4094;49.948;11.574;2022-08-05T06:00:21;27.40;44.50
8103;DHT22;4094;49.948;11.574;2022-08-05T06:02:59;27.50;44.30
8103;DHT22;4094;49.948;11.574;2022-08-05T06:05:29;27.60;44.20
8103;DHT22;4094;49.948;11.574;2022-08-05T06:08:00;27.60;44.10
8103;DHT22;4094;49.948;11.574;2022-08-05T06:10:32;27.70;44.00
8103;DHT22;4094;49.948;11.574;2022-08-05T06:13:10;27.70;44.00
8103;DHT22;4094;49.948;11.574;2022-08-05T06:15:40;27.80;44.10
8103;DHT22;4094;49.948;11.574;2022-08-05T06:18:29;27.80;44.10
8103;DHT22;4094;49.948;11.574;2022-08-05T06:21:03;27.90;43.90
8103;DHT22;4094;49.948;11.574;2022-08-05T06:23:44;28.00;43.90
8103;DHT22;4094;49.948;11.574;2022-08-05T06:26:17;28.00;44.00
8103;DHT22;4094;49.948;11.574;2022-08-05T06:28:50;28.10;43.70
8103;DHT22;4094;49.948;11.574;2022-08-05T06:31:19;28.10;43.80
8103;DHT22;4094;49.948;11.574;2022-08-05T06:33:57;28.10;43.80
8103;DHT22;4094;49.948;11.574;2022-08-05T06:36:36;28.10;43.40
8103;DHT22;4094;49.948;11.574;2022-08-05T06:39:25;28.10;43.40
8103;DHT22;4094;49.948;11.574;2022-08-05T06:41:57;28.10;43.10
8103;DHT22;4094;49.948;11.574;2022-08-05T06:44:31;28.10;42.90
8103;DHT22;4094;49.948;11.574;2022-08-05T06:47:00;28.10;42.90
8103;DHT22;4094;49.948;11.574;2022-08-05T06:49:29;28.00;42.90
8103;DHT22;4094;49.948;11.574;2022-08-05T06:52:18;28.00;43.00
8103;DHT22;4094;49.948;11.574;2022-08-05T06:55:07;28.00;42.90
8103;DHT22;4094;49.948;11.574;2022-08-05T06:57:39;28.00;43.00
8103;DHT22;4094;49.948;11.574;2022-08-05T07:00:28;28.00;43.00
8103;DHT22;4094;49.948;11.574;2022-08-05T07:02:58;28.00;43.30
8103;DHT22;4094;49.948;11.574;2022-08-05T07:05:27;28.10;43.10
8103;DHT22;4094;49.948;11.574;2022-08-05T07:08:04;28.10;42.80
8103;DHT22;4094;49.948;11.574;2022-08-05T07:10:38;28.20;42.90
8103;DHT22;4094;49.948;11.574;2022-08-05T07:13:23;28.20;42.80
8103;DHT22;4094;49.948;11.574;2022-08-05T07:16:26;28.30;42.90
8103;DHT22;4094;49.948;11.574;2022-08-05T07:19:33;28.30;42.90
8103;DHT22;4094;49.948;11.574;2022-08-05T07:22:23;28.40;43.10
8103;DHT22;4094;49.948;11.574;2022-08-05T07:24:57;28.50;43.10
8103;DHT22;4094;49.948;11.574;2022-08-05T07:27:47;28.60;43.20
8103;DHT22;4094;49.948;11.574;2022-08-05T07:30:32;28.60;43.10
8103;DHT22;4094;49.948;11.574;2022-08-05T07:33:07;28.60;43.20
8103;DHT22;4094;49.948;11.574;2022-08-05T07:35:44;28.70;43.40
8103;DHT22;4094;49.948;11.574;2022-08-05T07:38:35;28.70;43.30
8103;DHT22;4094;49.948;11.574;2022-08-05T07:41:13;28.80;43.60
8103;DHT22;4094;49.948;11.574;2022-08-05T07:44:05;28.80;43.70
8103;DHT22;4094;49.948;11.574;2022-08-05T07:46:47;28.90;43.80
8103;DHT22;4094;49.948;11.574;2022-08-05T07:49:17;29.00;44.00
8103;DHT22;4094;49.948;11.574;2022-08-05T07:51:47;29.10;44.00
8103;DHT22;4094;49.948;11.574;2022-08-05T07:54:22;29.20;43.90
8103;DHT22;4094;49.948;11.574;2022-08-05T07:56:58;29.20;43.90
8103;DHT22;4094;49.948;11.574;2022-08-05T07:59:48;29.30;44.00
8103;DHT22;4094;49.948;11.574;2022-08-05T08:02:24;29.40;44.00
8103;DHT22;4094;49.948;11.574;2022-08-05T08:04:58;29.50;44.20
8103;DHT22;4094;49.948;11.574;2022-08-05T08:07:27;29.60;44.00
8103;DHT22;4094;49.948;11.574;2022-08-05T08:10:16;29.70;43.70
8103;DHT22;4094;49.948;11.574;2022-08-05T08:12:47;29.80;43.70
8103;DHT22;4094;49.948;11.574;2022-08-05T08:15:16;29.90;43.50
8103;DHT22;4094;49.948;11.574;2022-08-05T08:18:07;29.90;43.50
8103;DHT22;4094;49.948;11.574;2022-08-05T08:20:41;30.00;43.30
8103;DHT22;4094;49.948;11.574;2022-08-05T08:23:30;30.10;43.10
8103;DHT22;4094;49.948;11.574;2022-08-05T08:26:20;30.20;43.00
8103;DHT22;4094;49.948;11.574;2022-08-05T08:28:58;30.30;42.80
8103;DHT22;4094;49.948;11.574;2022-08-05T08:31:47;30.30;42.70
8103;DHT22;4094;49.948;11.574;2022-08-05T08:34:19;30.40;42.70
8103;DHT22;4094;49.948;11.574;2022-08-05T08:37:00;30.40;42.30
8103;DHT22;4094;49.948;11.574;2022-08-05T08:39:32;30.40;42.30
8103;DHT22;4094;49.948;11.574;2022-08-05T08:42:05;30.50;42.20
8103;DHT22;4094;49.948;11.574;2022-08-05T08:44:57;30.50;42.50
8103;DHT22;4094;49.948;11.574;2022-08-05T08:47:49;30.60;42.10
8103;DHT22;4094;49.948;11.574;2022-08-05T08:50:42;30.70;42.30
8103;DHT22;4094;49.948;11.574;2022-08-05T08:53:35;30.80;41.60
8103;DHT22;4094;49.948;11.574;2022-08-05T08:56:11;30.90;41.90
8103;DHT22;4094;49.948;11.574;2022-08-05T08:58:40;31.00;42.20
8103;DHT22;4094;49.948;11.574;2022-08-05T09:01:15;31.10;42.00
8103;DHT22;4094;49.948;11.574;2022-08-05T09:03:47;31.20;41.40
8103;DHT22;4094;49.948;11.574;2022-08-05T09:06:27;31.30;41.60
8103;DHT22;4094;49.948;11.574;2022-08-05T09:08:59;31.40;41.40
8103;DHT22;4094;49.948;11.574;2022-08-05T09:11:29;31.40;40.90
8103;DHT22;4094;49.948;11.574;2022-08-05T09:14:18;31.40;40.90
8103;DHT22;4094;49.948;11.574;2022-08-05T09:17:10;31.40;41.20
8103;DHT22;4094;49.948;11.574;2022-08-05T09:20:04;31.50;41.40
8103;DHT22;4094;49.948;11.574;2022-08-05T09:23:05;31.50;40.90
8103;DHT22;4094;49.948;11.574;2022-08-05T09:25:38;31.50;40.70
8103;DHT22;4094;49.948;11.574;2022-08-05T09:28:27;31.60;40.90
8103;DHT22;4094;49.948;11.574;2022-08-05T09:31:02;31.60;40.90
8103;DHT22;4094;49.948;11.574;2022-08-05T09:33:53;31.60;40.60
8103;DHT22;4094;49.948;11.574;2022-08-05T09:36:23;31.60;40.50
8103;DHT22;4094;49.948;11.574;2022-08-05T09:39:05;31.60;40.60
8103;DHT22;4094;49.948;11.574;2022-08-05T09:41:56;31.70;41.20
8103;DHT22;4094;49.948;11.574;2022-08-05T09:44:33;31.70;40.80
8103;DHT22;4094;49.948;11.574;2022-08-05T09:47:08;31.70;40.70
8103;DHT22;4094;49.948;11.574;2022-08-05T09:49:45;31.70;40.60
8103;DHT22;4094;49.948;11.574;2022-08-05T09:52:30;31.70;40.50
8103;DHT22;4094;49.948;11.574;2022-08-05T09:55:05;31.80;40.40
8103;DHT22;4094;49.948;11.574;2022-08-05T09:57:54;31.80;40.20
8103;DHT22;4094;49.948;11.574;2022-08-05T10:00:26;31.90;40.80
8103;DHT22;4094;49.948;11.574;2022-08-05T10:02:58;31.90;40.50
8103;DHT22;4094;49.948;11.574;2022-08-05T10:05:36;32.00;40.40
8103;DHT22;4094;49.948;11.574;2022-08-05T10:08:06;32.00;40.00
8103;DHT22;4094;49.948;11.574;2022-08-05T10:10:57;32.00;39.80
8103;DHT22;4094;49.948;11.574;2022-08-05T10:13:29;32.10;40.00
8103;DHT22;4094;49.948;11.574;2022-08-05T10:16:31;32.10;39.90
8103;DHT22;4094;49.948;11.574;2022-08-05T10:19:01;32.20;40.00
8103;DHT22;4094;49.948;11.574;2022-08-05T10:21:36;32.20;39.70
8103;DHT22;4094;49.948;11.574;2022-08-05T10:24:08;32.30;39.20
8103;DHT22;4094;49.948;11.574;2022-08-05T10:26:43;32.40;39.10
8103;DHT22;4094;49.948;11.574;2022-08-05T10:29:19;32.40;38.90
8103;DHT22;4094;49.948;11.574;2022-08-05T10:32:09;32.50;39.20
8103;DHT22;4094;49.948;11.574;2022-08-05T10:34:59;32.50;37.90
8103;DHT22;4094;49.948;11.574;2022-08-05T10:37:29;32.50;38.20
8103;DHT22;4094;49.948;11.574;2022-08-05T10:40:20;32.60;37.60
8103;DHT22;4094;49.948;11.574;2022-08-05T10:43:01;32.60;37.40
8103;DHT22;4094;49.948;11.574;2022-08-05T10:45:32;32.60;37.30
8103;DHT22;4094;49.948;11.574;2022-08-05T10:48:28;32.60;37.50
8103;DHT22;4094;49.948;11.574;2022-08-05T10:51:19;32.70;37.50
8103;DHT22;4094;49.948;11.574;2022-08-05T10:53:58;32.70;37.70
8103;DHT22;4094;49.948;11.574;2022-08-05T10:56:48;32.80;37.00
8103;DHT22;4094;49.948;11.574;2022-08-05T10:59:27;32.80;37.70
8103;DHT22;4094;49.948;11.574;2022-08-05T11:02:16;32.90;36.90
8103;DHT22;4094;49.948;11.574;2022-08-05T11:05:08;32.90;36.50
8103;DHT22;4094;49.948;11.574;2022-08-05T11:07:55;33.00;36.30
8103;DHT22;4094;49.948;11.574;2022-08-05T11:10:44;33.10;36.10
8103;DHT22;4094;49.948;11.574;2022-08-05T11:13:42;33.10;36.50
8103;DHT22;4094;49.948;11.574;2022-08-05T11:16:27;33.10;35.90
8103;DHT22;4094;49.948;11.574;2022-08-05T11:19:31;33.10;35.50
8103;DHT22;4094;49.948;11.574;2022-08-05T11:22:41;33.20;35.90
8103;DHT22;4094;49.948;11.574;2022-08-05T11:25:28;33.20;35.70
8103;DHT22;4094;49.948;11.574;2022-08-05T11:28:41;33.20;35.50
8103;DHT22;4094;49.948;11.574;2022-08-05T11:31:27;33.30;35.30
8103;DHT22;4094;49.948;11.574;2022-08-05T11:34:34;33.30;35.10
8103;DHT22;4094;49.948;11.574;2022-08-05T11:37:04;33.40;35.80
8103;DHT22;4094;49.948;11.574;2022-08-05T11:39:53;33.40;35.30
8103;DHT22;4094;49.948;11.574;2022-08-05T11:42:31;33.50;34.70
8103;DHT22;4094;49.948;11.574;2022-08-05T11:45:07;33.60;34.80
8103;DHT22;4094;49.948;11.574;2022-08-05T11:47:55;33.60;35.00
8103;DHT22;4094;49.948;11.574;2022-08-05T11:50:25;33.70;35.10
8103;DHT22;4094;49.948;11.574;2022-08-05T11:52:55;33.70;34.90
8103;DHT22;4094;49.948;11.574;2022-08-05T11:55:25;33.80;34.80
8103;DHT22;4094;49.948;11.574;2022-08-05T11:58:03;33.80;34.70
8103;DHT22;4094;49.948;11.574;2022-08-05T12:00:38;33.90;34.80
8103;DHT22;4094;49.948;11.574;2022-08-05T12:03:19;33.90;33.90
8103;DHT22;4094;49.948;11.574;2022-08-05T12:06:03;34.00;34.30
8103;DHT22;4094;49.948;11.574;2022-08-05T12:08:39;34.00;34.30
8103;DHT22;4094;49.948;11.574;2022-08-05T12:11:19;34.00;34.40
8103;DHT22;4094;49.948;11.574;2022-08-05T12:13:57;34.00;34.10
8103;DHT22;4094;49.948;11.574;2022-08-05T12:16:33;34.00;33.90
8103;DHT22;4094;49.948;11.574;2022-08-05T12:19:07;34.00;33.80
8103;DHT22;4094;49.948;11.574;2022-08-05T12:21:57;34.00;33.90
8103;DHT22;4094;49.948;11.574;2022-08-05T12:24:28;33.90;34.20
8103;DHT22;4094;49.948;11.574;2022-08-05T12:26:57;33.90;34.50
8103;DHT22;4094;49.948;11.574;2022-08-05T12:29:58;33.90;34.60
8103;DHT22;4094;49.948;11.574;2022-08-05T12:32:31;34.00;34.30
8103;DHT22;4094;49.948;11.574;2022-08-05T12:35:03;34.00;34.80
8103;DHT22;4094;49.948;11.574;2022-08-05T12:37:34;34.00;34.50
8103;DHT22;4094;49.948;11.574;2022-08-05T12:40:08;34.00;34.60
8103;DHT22;4094;49.948;11.574;2022-08-05T12:42:54;34.20;34.30
8103;DHT22;4094;49.948;11.574;2022-08-05T12:45:23;34.20;34.20
8103;DHT22;4094;49.948;11.574;2022-08-05T12:48:14;34.30;34.80
8103;DHT22;4094;49.948;11.574;2022-08-05T12:51:13;34.40;34.10
8103;DHT22;4094;49.948;11.574;2022-08-05T12:54:04;34.50;34.40
8103;DHT22;4094;49.948;11.574;2022-08-05T12:56:47;34.60;34.00
8103;DHT22;4094;49.948;11.574;2022-08-05T12:59:19;34.70;33.80
8103;DHT22;4094;49.948;11.574;2022-08-05T13:02:10;34.80;33.60
8103;DHT22;4094;49.948;11.574;2022-08-05T13:04:42;34.80;33.50
8103;DHT22;4094;49.948;11.574;2022-08-05T13:07:24;34.90;33.30
8103;DHT22;4094;49.948;11.574;2022-08-05T13:10:14;35.10;33.10
8103;DHT22;4094;49.948;11.574;2022-08-05T13:12:47;35.20;33.30
8103;DHT22;4094;49.948;11.574;2022-08-05T13:15:29;35.20;33.20
8103;DHT22;4094;49.948;11.574;2022-08-05T13:18:16;35.30;33.90
8103;DHT22;4094;49.948;11.574;2022-08-05T13:20:47;35.40;33.30
8103;DHT22;4094;49.948;11.574;2022-08-05T13:23:18;35.50;32.80
8103;DHT22;4094;49.948;11.574;2022-08-05T13:25:50;35.60;32.70
8103;DHT22;4094;49.948;11.574;2022-08-05T13:28:27;35.60;32.60
8103;DHT22;4094;49.948;11.574;2022-08-05T13:30:59;35.70;32.60
8103;DHT22;4094;49.948;11.574;2022-08-05T13:33:40;35.70;32.20
8103;DHT22;4094;49.948;11.574;2022-08-05T13:36:30;35.80;32.10
8103;DHT22;4094;49.948;11.574;2022-08-05T13:39:02;35.80;32.10
8103;DHT22;4094;49.948;11.574;2022-08-05T13:41:51;35.80;32.60
8103;DHT22;4094;49.948;11.574;2022-08-05T13:44:22;35.90;32.20
8103;DHT22;4094;49.948;11.574;2022-08-05T13:46:51;35.90;32.10
8103;DHT22;4094;49.948;11.574;2022-08-05T13:49:35;36.00;32.30
8103;DHT22;4094;49.948;11.574;2022-08-05T13:52:13;36.00;32.60
8103;DHT22;4094;49.948;11.574;2022-08-05T13:54:44;36.00;32.50
8103;DHT22;4094;49.948;11.574;2022-08-05T13:57:20;36.10;32.20
8103;DHT22;4094;49.948;11.574;2022-08-05T13:59:51;36.10;31.90
8103;DHT22;4094;49.948;11.574;2022-08-05T14:02:35;36.10;32.20
8103;DHT22;4094;49.948;11.574;2022-08-05T14:05:05;36.10;32.40
8103;DHT22;4094;49.948;11.574;2022-08-05T14:07:56;36.10;33.40
8103;DHT22;4094;49.948;11.574;2022-08-05T14:10:47;36.20;32.20
8103;DHT22;4094;49.948;11.574;2022-08-05T14:13:16;36.20;32.50
8103;DHT22;4094;49.948;11.574;2022-08-05T14:15:50;36.20;32.00
8103;DHT22;4094;49.948;11.574;2022-08-05T14:18:37;36.20;32.00
8103;DHT22;4094;49.948;11.574;2022-08-05T14:21:07;36.20;31.50
8103;DHT22;4094;49.948;11.574;2022-08-05T14:23:56;36.20;31.50
8103;DHT22;4094;49.948;11.574;2022-08-05T14:26:28;36.20;31.50
8103;DHT22;4094;49.948;11.574;2022-08-05T14:29:07;36.20;32.20
8103;DHT22;4094;49.948;11.574;2022-08-05T14:31:44;36.20;32.10
8103;DHT22;4094;49.948;11.574;2022-08-05T14:34:34;36.10;32.00
8103;DHT22;4094;49.948;11.574;2022-08-05T14:37:03;36.20;31.80
8103;DHT22;4094;49.948;11.574;2022-08-05T14:39:33;36.20;31.70
8103;DHT22;4094;49.948;11.574;2022-08-05T14:42:25;36.10;31.40
8103;DHT22;4094;49.948;11.574;2022-08-05T14:44:55;36.10;31.60
8103;DHT22;4094;49.948;11.574;2022-08-05T14:47:26;36.10;31.30
8103;DHT22;4094;49.948;11.574;2022-08-05T14:50:15;36.00;31.50
8103;DHT22;4094;49.948;11.574;2022-08-05T14:52:46;36.00;31.80
8103;DHT22;4094;49.948;11.574;2022-08-05T14:55:26;35.90;31.60
8103;DHT22;4094;49.948;11.574;2022-08-05T14:58:08;35.90;31.80
8103;DHT22;4094;49.948;11.574;2022-08-05T15:00:40;35.80;31.70
8103;DHT22;4094;49.948;11.574;2022-08-05T15:03:27;35.80;31.90
8103;DHT22;4094;49.948;11.574;2022-08-05T15:06:06;35.70;31.90
8103;DHT22;4094;49.948;11.574;2022-08-05T15:08:43;35.60;31.70
8103;DHT22;4094;49.948;11.574;2022-08-05T15:11:31;35.50;31.50
8103;DHT22;4094;49.948;11.574;2022-08-05T15:14:21;35.40;32.50
8103;DHT22;4094;49.948;11.574;2022-08-05T15:17:10;35.40;32.20
8103;DHT22;4094;49.948;11.574;2022-08-05T15:19:59;35.30;32.00
8103;DHT22;4094;49.948;11.574;2022-08-05T15:22:28;35.20;32.00
8103;DHT22;4094;49.948;11.574;2022-08-05T15:24:57;35.10;32.00
8103;DHT22;4094;49.948;11.574;2022-08-05T15:27:37;35.00;31.90
8103;DHT22;4094;49.948;11.574;2022-08-05T15:30:12;34.90;31.80
8103;DHT22;4094;49.948;11.574;2022-08-05T15:32:43;34.80;31.80
8103;DHT22;4094;49.948;11.574;2022-08-05T15:35:12;34.70;31.50
8103;DHT22;4094;49.948;11.574;2022-08-05T15:37:42;34.60;32.00
8103;DHT22;4094;49.948;11.574;2022-08-05T15:40:31;34.50;31.80
8103;DHT22;4094;49.948;11.574;2022-08-05T15:43:20;34.40;31.80
8103;DHT22;4094;49.948;11.574;2022-08-05T15:45:51;34.40;31.80
8103;DHT22;4094;49.948;11.574;2022-08-05T15:48:28;34.30;31.90
8103;DHT22;4094;49.948;11.574;2022-08-05T15:50:57;34.20;32.10
8103;DHT22;4094;49.948;11.574;2022-08-05T15:53:32;34.20;31.90
8103;DHT22;4094;49.948;11.574;2022-08-05T15:56:17;34.10;32.60
8103;DHT22;4094;49.948;11.574;2022-08-05T15:58:47;34.10;32.10
8103;DHT22;4094;49.948;11.574;2022-08-05T16:01:18;34.00;32.00
8103;DHT22;4094;49.948;11.574;2022-08-05T16:03:56;34.00;32.10
8103;DHT22;4094;49.948;11.574;2022-08-05T16:06:25;33.90;32.30
8103;DHT22;4094;49.948;11.574;2022-08-05T16:08:54;33.90;32.50
8103;DHT22;4094;49.948;11.574;2022-08-05T16:11:24;33.80;32.30
8103;DHT22;4094;49.948;11.574;2022-08-05T16:14:10;33.80;32.50
8103;DHT22;4094;49.948;11.574;2022-08-05T16:16:46;33.70;32.60
8103;DHT22;4094;49.948;11.574;2022-08-05T16:19:15;33.70;32.60
8103;DHT22;4094;49.948;11.574;2022-08-05T16:21:52;33.60;32.90
8103;DHT22;4094;49.948;11.574;2022-08-05T16:24:27;33.60;33.50
8103;DHT22;4094;49.948;11.574;2022-08-05T16:27:17;33.50;33.50
8103;DHT22;4094;49.948;11.574;2022-08-05T16:30:07;33.50;33.70
8103;DHT22;4094;49.948;11.574;2022-08-05T16:32:57;33.50;33.90
8103;DHT22;4094;49.948;11.574;2022-08-05T16:35:27;33.40;34.00
8103;DHT22;4094;49.948;11.574;2022-08-05T16:37:59;33.40;34.30
8103;DHT22;4094;49.948;11.574;2022-08-05T16:40:48;33.30;34.30
8103;DHT22;4094;49.948;11.574;2022-08-05T16:43:23;33.20;34.40
8103;DHT22;4094;49.948;11.574;2022-08-05T16:45:53;33.20;34.40
8103;DHT22;4094;49.948;11.574;2022-08-05T16:48:40;33.10;34.60
8103;DHT22;4094;49.948;11.574;2022-08-05T16:51:09;33.00;34.70
8103;DHT22;4094;49.948;11.574;2022-08-05T16:53:39;33.00;35.00
8103;DHT22;4094;49.948;11.574;2022-08-05T16:56:30;33.00;35.20
8103;DHT22;4094;49.948;11.574;2022-08-05T16:59:00;32.90;35.40